createdAt,value
2019-05-17T03:02:28.647Z,9.52
2019-05-17T03:05:03.546Z,9.55
2019-05-17T03:07:33.712Z,9.60
2019-05-17T03:10:18.266Z,9.69
2019-05-17T03:12:37.620Z,9.73
2019-05-17T03:15:08.348Z,9.81
2019-05-17T03:17:42.927Z,9.80
2019-05-17T03:20:14.724Z,9.87
2019-05-17T03:22:46.541Z,9.88
2019-05-17T03:25:18.321Z,9.94
2019-05-17T03:27:53.356Z,10.00
2019-05-17T03:30:25.952Z,10.06
2019-05-17T03:32:57.880Z,10.04
2019-05-17T03:35:36.675Z,10.15
2019-05-17T03:38:04.085Z,10.19
2019-05-17T03:41:03.612Z,10.27
2019-05-17T03:43:09.586Z,10.27
2019-05-17T03:45:42.616Z,10.36
2019-05-17T03:48:15.208Z,10.44
2019-05-17T03:50:46.808Z,10.48
2019-05-17T03:53:18.444Z,10.54
2019-05-17T03:55:53.761Z,10.58
2019-05-17T03:58:23.730Z,10.67
2019-05-17T04:00:55.524Z,10.72
2019-05-17T04:03:30.969Z,10.74
2019-05-17T04:06:03.595Z,10.82
2019-05-17T04:08:34.162Z,10.85
2019-05-17T04:11:20.730Z,10.87
2019-05-17T04:13:42.808Z,10.89
2019-05-17T04:16:14.125Z,11.01
2019-05-17T04:18:46.169Z,11.07
2019-05-17T04:21:17.881Z,11.18
2019-05-17T04:23:49.486Z,11.22
2019-05-17T04:26:22.943Z,11.31
2019-05-17T04:28:54.660Z,11.36
2019-05-17T04:31:30.267Z,11.42
2019-05-17T04:34:02.701Z,11.44
2019-05-17T04:36:33.040Z,11.48
2019-05-17T04:39:06.206Z,11.57
2019-05-17T04:41:45.548Z,11.58
2019-05-17T04:44:12.838Z,11.62
2019-05-17T04:46:44.931Z,11.63
2019-05-17T04:49:16.808Z,11.71
2019-05-17T04:51:48.502Z,11.79
2019-05-17T04:54:22.746Z,11.85
2019-05-17T04:56:53.505Z,11.89
2019-05-17T04:59:25.405Z,11.94
2019-05-17T05:01:57.140Z,12.00
2019-05-17T05:04:28.950Z,12.03
2019-05-17T05:07:03.141Z,12.07
2019-05-17T05:09:34.143Z,12.19
2019-05-17T05:12:06.561Z,12.26
2019-05-17T05:14:38.724Z,12.28
2019-05-17T05:17:12.742Z,12.32
2019-05-17T05:19:43.827Z,12.41
2019-05-17T05:22:17.608Z,12.42
2019-05-17T05:24:48.913Z,12.44
2019-05-17T05:27:22.289Z,12.53
2019-05-17T05:29:54.243Z,12.61
2019-05-17T05:32:25.857Z,12.69
2019-05-17T05:34:57.614Z,12.73
2019-05-17T05:37:29.322Z,12.78
2019-05-17T05:40:02.120Z,12.88
2019-05-17T05:42:33.952Z,12.90
2019-05-17T05:45:06.082Z,12.93
2019-05-17T05:47:37.867Z,12.94
2019-05-17T05:50:12.154Z,12.98
2019-05-17T05:52:43.220Z,13.01
2019-05-17T05:55:15.031Z,13.13
2019-05-17T05:57:46.722Z,13.14
2019-05-17T06:00:19.002Z,13.24
2019-05-17T06:02:52.286Z,13.28
2019-05-17T06:05:24.170Z,13.33
2019-05-17T06:07:55.911Z,13.39
2019-05-17T06:10:27.941Z,13.43
2019-05-17T06:13:02.566Z,13.46
2019-05-17T06:15:33.265Z,13.46
2019-05-17T06:18:05.083Z,13.56
2019-05-17T06:20:36.644Z,13.54
2019-05-17T06:23:08.404Z,13.51
2019-05-17T06:25:40.013Z,13.52
2019-05-17T06:28:12.047Z,13.64
2019-05-17T06:30:43.499Z,13.68
2019-05-17T06:33:27.010Z,13.75
2019-05-17T06:35:47.175Z,13.71
2019-05-17T06:38:18.830Z,13.87
2019-05-17T06:40:52.345Z,13.84
2019-05-17T06:43:24.059Z,13.96
2019-05-17T06:45:55.619Z,13.93
2019-05-17T06:48:27.361Z,14.02
2019-05-17T06:50:59.211Z,14.06
2019-05-17T06:53:32.379Z,14.15
2019-05-17T06:56:04.469Z,14.10
2019-05-17T06:58:36.219Z,14.15
2019-05-17T07:01:09.493Z,14.21
2019-05-17T07:03:41.237Z,14.32
2019-05-17T07:06:14.740Z,14.37
2019-05-17T07:08:46.728Z,14.45
2019-05-17T07:11:20.918Z,14.48
2019-05-17T07:13:51.971Z,14.47
2019-05-17T07:16:23.764Z,14.56
2019-05-17T07:18:55.542Z,14.71
2019-05-17T07:21:29.565Z,14.77
2019-05-17T07:24:01.587Z,14.79
2019-05-17T07:26:33.185Z,14.77
2019-05-17T07:29:04.987Z,14.73
2019-05-17T07:31:36.939Z,14.63
2019-05-17T07:34:09.257Z,14.86
2019-05-17T07:36:40.892Z,14.98
2019-05-17T07:39:12.758Z,15.04
2019-05-17T07:41:44.418Z,14.93
2019-05-17T07:44:16.148Z,15.08
2019-05-17T07:46:51.693Z,15.20
2019-05-17T07:49:21.200Z,15.33
2019-05-17T07:51:52.854Z,15.26
2019-05-17T07:54:24.598Z,15.26
2019-05-17T07:56:56.371Z,15.27
2019-05-17T07:59:29.464Z,15.27
2019-05-17T08:02:01.048Z,15.45
2019-05-17T08:04:32.672Z,15.34
2019-05-17T08:07:04.373Z,15.51
2019-05-17T08:09:36.077Z,15.68
2019-05-17T08:12:10.845Z,15.69
2019-05-17T08:14:41.020Z,15.85
2019-05-17T08:17:13.146Z,15.78
2019-05-17T08:19:45.090Z,15.80
2019-05-17T08:22:16.878Z,15.69
2019-05-17T08:24:49.413Z,15.66
2019-05-17T08:27:21.085Z,15.88
2019-05-17T08:29:52.708Z,16.00
2019-05-17T08:32:24.509Z,16.18
2019-05-17T08:34:56.245Z,16.14
2019-05-17T08:37:30.144Z,16.28
2019-05-17T08:40:01.385Z,16.53
2019-05-17T08:42:33.272Z,16.83
2019-05-17T08:45:05.292Z,17.17
2019-05-17T08:47:39.779Z,17.65
2019-05-17T08:50:11.748Z,18.30
2019-05-17T08:52:43.582Z,18.99
2019-05-17T08:55:15.520Z,19.20
2019-05-17T08:57:49.843Z,19.64
2019-05-17T09:00:20.983Z,20.21
2019-05-17T09:02:52.496Z,20.28
2019-05-17T09:05:24.193Z,19.19
2019-05-17T09:07:55.863Z,18.92
2019-05-17T09:10:29.821Z,18.95
2019-05-17T09:13:00.916Z,18.38
2019-05-17T09:15:32.400Z,18.74
2019-05-17T09:18:04.097Z,20.78
2019-05-17T09:20:35.674Z,25.25
2019-05-17T09:23:09.472Z,28.34
2019-05-17T09:25:40.622Z,30.68
2019-05-17T09:28:12.281Z,33.75
2019-05-17T09:30:44.000Z,33.13
2019-05-17T09:33:15.582Z,34.49
2019-05-17T09:35:49.757Z,33.97
2019-05-17T09:38:20.531Z,32.54
2019-05-17T09:40:52.197Z,34.99
2019-05-17T09:43:23.943Z,34.88
2019-05-17T09:45:56.086Z,34.61
2019-05-17T09:48:30.364Z,35.45
2019-05-17T09:51:00.845Z,36.64
2019-05-17T09:53:32.587Z,36.01
2019-05-17T09:56:04.253Z,36.33
2019-05-17T09:58:35.884Z,34.97
2019-05-17T10:01:09.474Z,37.37
2019-05-17T10:03:41.543Z,38.39
2019-05-17T10:06:13.159Z,38.66
2019-05-17T10:08:44.683Z,37.89
2019-05-17T10:11:16.368Z,38.51
2019-05-17T10:13:49.889Z,39.60
2019-05-17T10:16:21.207Z,38.73
2019-05-17T10:18:52.727Z,41.00
2019-05-17T10:21:25.899Z,41.65
2019-05-17T10:24:00.012Z,43.23
2019-05-17T10:26:30.919Z,43.94
2019-05-17T10:29:02.463Z,43.17
2019-05-17T10:31:34.293Z,42.67
2019-05-17T10:34:05.951Z,42.49
2019-05-17T10:36:39.959Z,42.89
2019-05-17T10:39:11.055Z,41.67
2019-05-17T10:41:42.668Z,38.30
2019-05-17T10:44:14.349Z,38.44
2019-05-17T10:46:45.762Z,39.81
2019-05-17T10:49:17.206Z,39.23
2019-05-17T10:51:49.478Z,39.68
2019-05-17T10:54:21.115Z,41.64
2019-05-17T10:56:53.167Z,41.35
2019-05-17T10:59:24.799Z,40.74
2019-05-17T11:01:56.696Z,42.36
2019-05-17T11:04:28.358Z,41.50
2019-05-17T11:07:00.028Z,42.16
2019-05-17T11:09:31.732Z,43.86
2019-05-17T11:12:03.370Z,42.84
2019-05-17T11:14:48.931Z,44.03
2019-05-17T11:17:08.833Z,41.57
2019-05-17T11:19:40.665Z,40.48
2019-05-17T11:22:12.823Z,39.64
2019-05-17T11:24:44.413Z,40.59
2019-05-17T11:27:15.974Z,40.13
2019-05-17T11:29:47.573Z,39.62
2019-05-17T11:32:19.212Z,39.79
2019-05-17T11:34:50.723Z,38.90
2019-05-17T11:37:22.603Z,38.50
2019-05-17T11:39:54.287Z,38.57
2019-05-17T11:42:25.916Z,41.42
2019-05-17T11:44:57.589Z,42.07
2019-05-17T11:47:29.336Z,41.61
2019-05-17T11:50:01.140Z,40.45
2019-05-17T11:52:32.839Z,41.08
2019-05-17T11:55:04.786Z,40.53
2019-05-17T11:57:36.834Z,41.07
2019-05-17T12:00:09.339Z,41.14
2019-05-17T12:02:41.007Z,41.87
2019-05-17T12:05:12.715Z,42.07
2019-05-17T12:07:44.421Z,40.71
2019-05-17T12:10:16.596Z,40.95
2019-05-17T12:12:48.253Z,42.18
2019-05-17T12:15:20.028Z,40.46
2019-05-17T12:17:51.865Z,38.75
2019-05-17T12:20:24.098Z,39.13
2019-05-17T12:22:56.060Z,38.93
2019-05-17T12:25:28.133Z,37.55
2019-05-17T12:27:59.823Z,39.28
2019-05-17T12:30:31.851Z,37.02
2019-05-17T12:33:03.740Z,38.85
2019-05-17T12:35:35.676Z,38.89
2019-05-17T12:38:07.572Z,39.36
2019-05-17T12:40:39.326Z,38.52
2019-05-17T12:43:11.070Z,38.92
2019-05-17T12:45:42.693Z,38.51
2019-05-17T12:48:14.298Z,38.77
2019-05-17T12:50:45.814Z,36.83
2019-05-17T12:53:17.493Z,37.89
2019-05-17T12:55:49.024Z,37.70
2019-05-17T12:58:20.711Z,37.52
2019-05-17T13:00:52.431Z,36.91
2019-05-17T13:03:24.154Z,35.87
2019-05-17T13:05:55.869Z,36.45
2019-05-17T13:08:27.666Z,38.31
2019-05-17T13:10:59.410Z,38.64
2019-05-17T13:13:31.165Z,36.86
2019-05-17T13:16:16.898Z,38.50
2019-05-17T13:18:36.214Z,37.40
2019-05-17T13:21:07.869Z,36.84
2019-05-17T13:23:39.622Z,32.91
2019-05-17T13:26:11.252Z,34.41
2019-05-17T13:28:42.792Z,35.40
2019-05-17T13:31:14.834Z,36.55
2019-05-17T13:33:46.517Z,37.65
2019-05-17T13:36:18.159Z,37.41
2019-05-17T13:38:50.226Z,36.57
2019-05-17T13:41:21.921Z,32.95
2019-05-17T13:43:55.398Z,30.74
2019-05-17T13:46:33.164Z,32.76
2019-05-17T13:49:00.275Z,33.19
2019-05-17T13:51:31.989Z,33.51
2019-05-17T13:54:03.731Z,34.72
2019-05-17T13:56:35.244Z,34.25
2019-05-17T13:59:06.811Z,35.27
2019-05-17T14:01:39.195Z,33.98
2019-05-17T14:04:10.859Z,34.07
2019-05-17T14:06:42.665Z,34.45
2019-05-17T14:09:14.304Z,34.58
2019-05-17T14:11:46.417Z,35.99
2019-05-17T14:14:18.052Z,35.09
2019-05-17T14:16:49.730Z,33.76
2019-05-17T14:19:21.369Z,33.15
2019-05-17T14:21:53.178Z,32.66
2019-05-17T14:24:24.873Z,34.37
2019-05-17T14:26:56.668Z,33.21
2019-05-17T14:29:28.350Z,32.58
2019-05-17T14:31:59.973Z,32.47
2019-05-17T14:34:31.405Z,32.99
2019-05-17T14:37:07.226Z,33.54
2019-05-17T14:39:36.575Z,32.49
2019-05-17T14:42:08.294Z,34.41
2019-05-17T14:44:40.042Z,34.56
2019-05-17T14:47:11.688Z,33.76
2019-05-17T14:49:43.402Z,33.45
2019-05-17T14:52:15.061Z,34.08
2019-05-17T14:54:46.799Z,33.11
2019-05-17T14:57:18.563Z,30.27
2019-05-17T14:59:50.868Z,30.43
2019-05-17T15:02:22.383Z,31.11
2019-05-17T15:04:53.986Z,31.75
2019-05-17T15:07:25.590Z,31.26
2019-05-17T15:09:57.360Z,31.14
2019-05-17T15:12:29.996Z,30.96
2019-05-17T15:15:01.847Z,30.12
2019-05-17T15:17:35.069Z,29.58
2019-05-17T15:20:07.145Z,29.05
2019-05-17T15:22:38.806Z,29.35
2019-05-17T15:25:10.787Z,29.56
2019-05-17T15:27:42.422Z,29.41
2019-05-17T15:30:14.298Z,28.35
2019-05-17T15:32:46.119Z,28.70
2019-05-17T15:35:17.909Z,27.10
2019-05-17T15:37:49.517Z,28.68
2019-05-17T15:40:21.105Z,27.61
2019-05-17T15:42:52.784Z,26.40
2019-05-17T15:45:24.420Z,25.84
2019-05-17T15:47:56.135Z,25.43
2019-05-17T15:50:27.628Z,25.00
2019-05-17T15:52:59.295Z,25.66
2019-05-17T15:55:31.036Z,25.44
2019-05-17T15:58:02.810Z,26.19
2019-05-17T16:00:34.660Z,25.89
2019-05-17T16:03:06.273Z,25.48
2019-05-17T16:05:37.960Z,25.05
2019-05-17T16:08:09.694Z,24.84
2019-05-17T16:10:41.292Z,24.77
2019-05-17T16:13:13.721Z,25.23
2019-05-17T16:15:45.248Z,24.63
2019-05-17T16:18:16.838Z,24.63
2019-05-17T16:20:48.557Z,24.38
2019-05-17T16:23:20.106Z,24.65
2019-05-17T16:25:51.662Z,24.75
2019-05-17T16:28:23.379Z,24.39
2019-05-17T16:30:55.044Z,24.64
2019-05-17T16:33:26.740Z,24.64
2019-05-17T16:35:58.452Z,24.32
2019-05-17T16:38:30.122Z,24.26
2019-05-17T16:41:01.771Z,23.82
2019-05-17T16:43:33.537Z,22.95
2019-05-17T16:46:06.436Z,22.49
2019-05-17T16:48:38.089Z,22.07
2019-05-17T16:51:09.795Z,21.71
2019-05-17T16:53:41.398Z,21.17
2019-05-17T16:56:13.114Z,20.88
2019-05-17T16:58:45.003Z,20.68
2019-05-17T17:01:17.067Z,20.53
2019-05-17T17:03:48.840Z,20.16
2019-05-17T17:06:20.495Z,19.97
2019-05-17T17:08:52.117Z,19.87
2019-05-17T17:11:23.927Z,19.78
2019-05-17T17:13:56.221Z,19.67
2019-05-17T17:16:28.109Z,19.41
2019-05-17T17:18:59.914Z,19.34
2019-05-17T17:21:31.554Z,19.18
2019-05-17T17:24:03.223Z,19.09
2019-05-17T17:26:35.172Z,19.00
2019-05-17T17:29:06.909Z,18.92
2019-05-17T17:31:38.611Z,18.81
2019-05-17T17:34:10.134Z,18.74
2019-05-17T17:36:41.890Z,18.67
2019-05-17T17:39:13.763Z,18.55
2019-05-17T17:41:45.714Z,18.48
2019-05-17T17:44:17.417Z,18.39
2019-05-17T17:46:48.962Z,18.30
2019-05-17T17:49:20.720Z,18.25
2019-05-17T17:51:52.475Z,18.23
2019-05-17T17:54:24.228Z,18.14
2019-05-17T17:56:55.768Z,18.13
2019-05-17T17:59:27.441Z,18.00
2019-05-17T18:01:59.283Z,17.99
2019-05-17T18:04:30.829Z,17.90
2019-05-17T18:07:02.525Z,17.85
2019-05-17T18:09:34.392Z,17.77
2019-05-17T18:12:06.015Z,17.69
2019-05-17T18:14:37.766Z,17.63
2019-05-17T18:17:09.640Z,17.59
2019-05-17T18:19:41.315Z,17.57
2019-05-17T18:22:13.082Z,17.47
2019-05-17T18:24:44.703Z,17.32
2019-05-17T18:27:16.526Z,17.16
2019-05-17T18:29:48.273Z,17.14
2019-05-17T18:32:20.002Z,17.14
2019-05-17T18:34:51.699Z,17.02
2019-05-17T18:37:24.409Z,16.99
2019-05-17T18:39:56.079Z,16.86
2019-05-17T18:42:27.955Z,16.79
2019-05-17T18:44:59.379Z,16.76
2019-05-17T18:47:29.880Z,16.74
2019-05-17T18:50:01.248Z,16.59
2019-05-17T18:52:32.932Z,16.62
2019-05-17T18:55:04.663Z,16.61
2019-05-17T18:57:36.526Z,16.57
2019-05-17T19:00:09.646Z,16.53
2019-05-17T19:02:43.859Z,16.53
2019-05-17T19:05:16.686Z,16.52
2019-05-17T19:07:50.436Z,16.41
2019-05-17T19:10:22.453Z,16.25
2019-05-17T19:12:54.201Z,16.08
2019-05-17T19:15:26.893Z,15.92
2019-05-17T19:17:58.716Z,15.88
2019-05-17T19:20:30.462Z,15.80
2019-05-17T19:23:02.131Z,15.67
2019-05-17T19:25:33.836Z,15.58
2019-05-17T19:28:08.873Z,15.46
2019-05-17T19:30:40.631Z,15.41
2019-05-17T19:33:12.207Z,15.35
2019-05-17T19:35:43.737Z,15.28
2019-05-17T19:38:15.390Z,15.26
2019-05-17T19:40:47.137Z,15.22
2019-05-17T19:43:19.943Z,15.35
2019-05-17T19:45:53.116Z,15.36
2019-05-17T19:48:24.829Z,15.25
2019-05-17T19:50:56.538Z,15.08
2019-05-17T19:53:28.407Z,15.06
2019-05-17T19:56:00.975Z,15.05
2019-05-17T19:58:32.689Z,15.03
2019-05-17T20:01:04.390Z,15.05
2019-05-17T20:03:36.064Z,14.92
2019-05-17T20:06:07.688Z,14.83
2019-05-17T20:08:40.075Z,14.70
2019-05-17T20:11:11.721Z,14.73
2019-05-17T20:13:43.629Z,14.71
2019-05-17T20:16:15.986Z,14.66
2019-05-17T20:18:47.758Z,14.58
2019-05-17T20:21:19.563Z,14.57
2019-05-17T20:23:51.278Z,14.62
2019-05-17T20:26:23.040Z,14.71
2019-05-17T20:28:54.959Z,14.69
2019-05-17T20:31:26.531Z,14.71
2019-05-17T20:33:59.516Z,14.71
2019-05-17T20:36:31.055Z,14.70
2019-05-17T20:39:02.791Z,14.73
2019-05-17T20:41:34.435Z,14.72
2019-05-17T20:44:06.311Z,14.71
2019-05-17T20:46:38.195Z,14.58
2019-05-17T20:49:09.891Z,14.49
2019-05-17T20:51:41.508Z,14.41
2019-05-17T20:54:13.304Z,14.29
2019-05-17T20:56:45.024Z,14.21
2019-05-17T20:59:16.926Z,14.14
2019-05-17T21:01:48.543Z,14.04
2019-05-17T21:04:20.382Z,14.01
2019-05-17T21:06:52.170Z,13.90
2019-05-17T21:09:23.849Z,13.86
2019-05-17T21:11:55.479Z,13.73
2019-05-17T21:14:27.169Z,13.69
2019-05-17T21:16:58.897Z,13.62
2019-05-17T21:19:30.599Z,13.54
2019-05-17T21:22:02.166Z,13.50
2019-05-17T21:24:34.210Z,13.45
2019-05-17T21:27:06.224Z,13.40
2019-05-17T21:29:37.843Z,13.38
2019-05-17T21:32:09.513Z,13.40
2019-05-17T21:34:41.396Z,13.43
2019-05-17T21:37:13.245Z,13.50
2019-05-17T21:39:44.932Z,13.43
2019-05-17T21:42:16.550Z,13.44
2019-05-17T21:44:48.216Z,13.39
2019-05-17T21:47:20.002Z,13.32
2019-05-17T21:49:53.040Z,13.29
2019-05-17T21:52:24.696Z,13.21
2019-05-17T21:54:56.307Z,13.14
2019-05-17T21:57:28.049Z,13.08
2019-05-17T21:59:59.702Z,13.04
2019-05-17T22:02:31.618Z,12.98
2019-05-17T22:05:03.324Z,12.92
2019-05-17T22:07:34.979Z,12.97
2019-05-17T22:10:07.346Z,12.89
2019-05-17T22:12:38.936Z,12.83
2019-05-17T22:15:10.678Z,12.75
2019-05-17T22:17:43.077Z,12.70
2019-05-17T22:20:15.210Z,12.64
2019-05-17T22:22:46.860Z,12.57
2019-05-17T22:25:18.633Z,12.51
2019-05-17T22:27:50.257Z,12.48
2019-05-17T22:30:21.838Z,12.46
2019-05-17T22:32:53.400Z,12.45
2019-05-17T22:35:24.960Z,12.42
2019-05-17T22:37:56.581Z,12.39
2019-05-17T22:40:28.244Z,12.57
2019-05-17T22:42:59.809Z,12.74
2019-05-17T22:45:31.373Z,12.85
2019-05-17T22:48:02.979Z,12.92
2019-05-17T22:50:34.802Z,12.98
2019-05-17T22:53:07.630Z,12.99
2019-05-17T22:55:39.243Z,13.01
2019-05-17T22:58:10.718Z,12.99
2019-05-17T23:00:42.512Z,12.97
2019-05-17T23:03:14.278Z,12.96
2019-05-17T23:05:46.150Z,12.94
2019-05-17T23:08:17.857Z,12.95
2019-05-17T23:10:49.644Z,12.99
2019-05-17T23:13:21.427Z,12.98
2019-05-17T23:16:02.895Z,12.91
2019-05-17T23:18:34.734Z,12.90
2019-05-17T23:21:06.528Z,12.79
2019-05-17T23:23:38.273Z,12.80
2019-05-17T23:26:09.919Z,12.83
2019-05-17T23:28:41.667Z,12.84
2019-05-17T23:31:13.309Z,12.87
2019-05-17T23:33:45.205Z,12.92
2019-05-17T23:36:16.741Z,12.97
2019-05-17T23:38:48.273Z,13.04
2019-05-17T23:41:20.950Z,13.09
2019-05-17T23:43:52.410Z,13.07
2019-05-17T23:46:22.943Z,13.03
2019-05-17T23:48:54.422Z,13.01
2019-05-17T23:51:26.173Z,13.04
2019-05-17T23:53:57.920Z,13.05
2019-05-17T23:56:29.731Z,13.11
2019-05-17T23:59:01.882Z,13.10
